Sargodha Weather



Sargodha's Current Weather

Temprature 7.66o clear sky

clear sky

Rain: 0 %

Min Temprature7.66o
Max Temprature7.66o
Humidity60
Wind Speed2.45 m/h
Sun Rise07:09:32
Sun Set17:29:27
Current Time: 18-Jan-2021 05:28:48
Lat/Lon: 32.0836, 72.6711




Sargodha's Geo Location



Sargodha's Weather Forecast

Time Overall Temp Min Temp Max Temp Humidity Wind Speed Rain
18-Jan-2021 (Mon)
08:00:00 clear sky 7.650 7.650 7.810 60 2.3 m/h 0 %
11:00:00 clear sky 14.410 14.410 16.310 41 2.76 m/h 0 %
14:00:00 clear sky 19.290 19.290 20.100 27 2.63 m/h 0 %
17:00:00 clear sky 16.890 16.890 16.970 31 1.85 m/h 0 %
20:00:00 clear sky 12.060 12.060 12.060 45 1.65 m/h 0 %
23:00:00 clear sky 10.440 10.440 10.440 51 0.83 m/h 0 %
19-Jan-2021 (Tue)
02:00:00 clear sky 9.700 9.700 9.700 51 0.87 m/h 0 %
05:00:00 clear sky 9.400 9.400 9.400 51 1.71 m/h 0 %
08:00:00 clear sky 10.430 10.430 10.430 47 1.35 m/h 0 %
11:00:00 clear sky 19.420 19.420 19.420 26 1.35 m/h 0 %
14:00:00 clear sky 22.750 22.750 22.750 21 1.76 m/h 0 %
17:00:00 clear sky 18.950 18.950 18.950 27 1.2 m/h 0 %
20:00:00 clear sky 14.060 14.060 14.060 36 1.56 m/h 0 %
23:00:00 clear sky 12.420 12.420 12.420 40 1.44 m/h 0 %
20-Jan-2021 (Wed)
02:00:00 clear sky 11.310 11.310 11.310 43 1.38 m/h 0 %
05:00:00 clear sky 10.430 10.430 10.430 45 1.1 m/h 0 %
08:00:00 clear sky 11.960 11.960 11.960 41 1.43 m/h 0 %
11:00:00 clear sky 21.960 21.960 21.960 21 2.1 m/h 0 %
14:00:00 clear sky 25.290 25.290 25.290 17 3.07 m/h 0 %
17:00:00 clear sky 20.740 20.740 20.740 23 1.88 m/h 0 %
20:00:00 clear sky 14.510 14.510 14.510 34 1.24 m/h 0 %
23:00:00 clear sky 13.210 13.210 13.210 36 1.36 m/h 0 %
21-Jan-2021 (Thu)
02:00:00 clear sky 12.450 12.450 12.450 38 1.7 m/h 0 %
05:00:00 scattered clouds 11.440 11.440 11.440 40 1.49 m/h 0 %
08:00:00 clear sky 12.430 12.430 12.430 38 0.87 m/h 0 %
11:00:00 clear sky 22.410 22.410 22.410 20 1.26 m/h 0 %
14:00:00 clear sky 25.730 25.730 25.730 16 1.44 m/h 0 %
17:00:00 clear sky 21.180 21.180 21.180 22 1 m/h 0 %
20:00:00 clear sky 14.960 14.960 14.960 32 1.41 m/h 0 %
23:00:00 scattered clouds 13.860 13.860 13.860 34 2.65 m/h 0 %
22-Jan-2021 (Fri)
02:00:00 broken clouds 12.290 12.290 12.290 38 3.26 m/h 0 %
05:00:00 overcast clouds 11.050 11.050 11.050 41 2.79 m/h 0 %
08:00:00 overcast clouds 11.670 11.670 11.670 40 2.47 m/h 0 %
11:00:00 overcast clouds 19.420 19.420 19.420 25 3.02 m/h 0 %
14:00:00 overcast clouds 23.580 23.580 23.580 19 3.19 m/h 0 %
17:00:00 overcast clouds 20.820 20.820 20.820 24 3.18 m/h 0 %
20:00:00 overcast clouds 15.490 15.490 15.490 35 4.23 m/h 0 %
23:00:00 overcast clouds 13.140 13.140 13.140 43 2.58 m/h 0 %
23-Jan-2021 (Sat)
02:00:00 overcast clouds 11.210 11.210 11.210 49 2.47 m/h 0 %
05:00:00 scattered clouds 8.960 8.960 8.960 57 1.58 m/h 0 %

Famous Cities (60)